createdAt,value
2022-12-22T00:04:46.034Z,99254.30
2022-12-22T00:15:08.951Z,99259.95
2022-12-22T00:25:36.376Z,99261.43
2022-12-22T00:35:58.646Z,99258.52
2022-12-22T00:46:23.101Z,99243.23
2022-12-22T00:56:45.393Z,99232.74
2022-12-22T01:07:07.724Z,99229.07
2022-12-22T01:17:30.594Z,99221.30
2022-12-22T01:27:52.897Z,99222.13
2022-12-22T01:38:15.267Z,99212.14
2022-12-22T01:48:41.673Z,99203.83
2022-12-22T01:59:10.491Z,99206.84
2022-12-22T02:09:59.325Z,99196.69
2022-12-22T02:20:49.125Z,99194.42
2022-12-22T02:31:12.357Z,99189.21
2022-12-22T02:41:57.564Z,99198.42
2022-12-22T02:52:49.336Z,99198.79
2022-12-22T03:03:11.747Z,99205.23
2022-12-22T03:13:34.210Z,99209.63
2022-12-22T03:23:56.542Z,99206.35
2022-12-22T03:34:00.101Z,99196.41
2022-12-22T03:44:22.387Z,99191.85
2022-12-22T03:54:26.301Z,99184.42
2022-12-22T04:04:29.983Z,99175.38
2022-12-22T04:14:34.846Z,99169.36
2022-12-22T04:24:38.794Z,99145.48
2022-12-22T04:34:42.378Z,99152.93
2022-12-22T04:44:46.041Z,99160.36
2022-12-22T04:54:49.746Z,99159.00
2022-12-22T05:04:53.385Z,99158.90
2022-12-22T05:14:57.032Z,99153.33
2022-12-22T05:25:00.671Z,99161.99
2022-12-22T05:35:04.676Z,99179.85
2022-12-22T05:45:13.119Z,99165.72
2022-12-22T05:55:17.652Z,99163.48
2022-12-22T06:05:21.258Z,99167.19
2022-12-22T06:15:24.998Z,99174.85
2022-12-22T06:25:28.571Z,99178.23
2022-12-22T06:35:32.141Z,99183.17
2022-12-22T06:45:41.941Z,99187.23
2022-12-22T06:55:45.648Z,99189.38
2022-12-22T07:05:49.214Z,99190.83
2022-12-22T07:16:00.147Z,99184.60
2022-12-22T07:26:05.820Z,99176.60
2022-12-22T07:36:16.401Z,99174.27
2022-12-22T07:46:20.472Z,99169.66
2022-12-22T07:56:24.158Z,99171.71
2022-12-22T08:06:28.522Z,99172.21
2022-12-22T08:16:32.311Z,99169.70
2022-12-22T08:26:41.247Z,99165.70
2022-12-22T08:36:49.301Z,99146.36
2022-12-22T08:46:56.559Z,99129.90
2022-12-22T08:57:00.212Z,99122.06
2022-12-22T09:07:03.943Z,99118.59
2022-12-22T09:17:09.324Z,99100.13
2022-12-22T09:27:13.258Z,99099.05
2022-12-22T09:37:17.765Z,99092.70
2022-12-22T09:47:25.633Z,99088.80
2022-12-22T09:57:33.552Z,99075.52
2022-12-22T10:07:40.780Z,99069.08
2022-12-22T10:17:44.683Z,99044.04
2022-12-22T10:27:51.545Z,99026.25
2022-12-22T10:37:55.323Z,99016.08
2022-12-22T10:47:59.335Z,99002.17
2022-12-22T10:58:09.107Z,98991.86
2022-12-22T11:08:19.263Z,98986.78
2022-12-22T11:18:58.810Z,98980.45
2022-12-22T11:29:14.847Z,98972.13
2022-12-22T11:39:37.131Z,98962.06
2022-12-22T11:50:25.451Z,98938.20
2022-12-22T12:00:28.396Z,98927.34
2022-12-22T12:10:48.235Z,98925.79
2022-12-22T12:21:13.389Z,98925.93
2022-12-22T12:31:26.133Z,98919.22
2022-12-22T12:41:39.340Z,98915.25
2022-12-22T12:51:50.398Z,98899.94
2022-12-22T13:01:56.238Z,98888.60
2022-12-22T13:12:38.734Z,98874.61
2022-12-22T13:22:44.133Z,98862.13
2022-12-22T13:32:51.564Z,98861.34
2022-12-22T13:42:56.447Z,98859.65
2022-12-22T13:53:02.482Z,98853.85
2022-12-22T14:03:41.802Z,98843.48
2022-12-22T14:13:43.892Z,98833.88
2022-12-22T14:23:49.908Z,98827.59
2022-12-22T14:34:38.234Z,98825.21
2022-12-22T14:44:54.417Z,98823.77
2022-12-22T15:08:06.804Z,98803.88
2022-12-22T15:18:15.452Z,98794.23
2022-12-22T15:28:19.088Z,98783.80
2022-12-22T15:38:24.686Z,98781.78
2022-12-22T15:48:34.730Z,98771.94
2022-12-22T15:58:38.422Z,98756.20
2022-12-22T16:08:47.259Z,98751.33
2022-12-22T16:18:52.476Z,98741.13
2022-12-22T16:28:56.331Z,98721.52
2022-12-22T16:39:00.113Z,98709.42
2022-12-22T16:49:07.403Z,98698.76
2022-12-22T16:59:11.290Z,98686.48
2022-12-22T17:09:20.453Z,98675.23
2022-12-22T17:19:24.928Z,98668.52
2022-12-22T17:29:30.283Z,98657.55
2022-12-22T17:39:38.709Z,98651.55
2022-12-22T17:49:43.437Z,98656.08
2022-12-22T17:59:47.416Z,98643.89
2022-12-22T18:09:56.697Z,98632.63
2022-12-22T18:20:00.787Z,98619.98
2022-12-22T18:30:15.667Z,98618.09
2022-12-22T18:40:34.516Z,98611.42
2022-12-22T18:50:42.475Z,98605.55
2022-12-22T19:40:17.207Z,98570.95
2022-12-22T19:50:24.827Z,98567.52
2022-12-22T20:00:28.672Z,98564.45
2022-12-22T20:10:35.190Z,98565.39
2022-12-22T20:20:39.466Z,98557.70
2022-12-22T20:30:43.685Z,98548.67
2022-12-22T20:40:49.889Z,98548.92
2022-12-22T20:50:53.549Z,98544.98
2022-12-22T21:01:01.584Z,98543.46
2022-12-22T21:11:06.369Z,98538.80
2022-12-22T21:21:11.526Z,98542.27
2022-12-22T21:31:15.415Z,98530.42
2022-12-22T21:41:19.190Z,98525.09
2022-12-22T21:51:22.739Z,98530.25
2022-12-22T22:01:26.473Z,98528.23
2022-12-22T22:11:30.397Z,98524.90
2022-12-22T22:21:35.268Z,98532.19
2022-12-22T22:31:40.792Z,98528.42
2022-12-22T22:41:44.506Z,98524.55
2022-12-22T22:51:48.979Z,98521.34
2022-12-22T23:01:52.677Z,98522.97
2022-12-22T23:11:56.476Z,98521.36
2022-12-22T23:22:00.114Z,98529.31
2022-12-22T23:32:04.746Z,98527.88
2022-12-22T23:42:09.557Z,98530.57
2022-12-22T23:52:13.267Z,98538.12
